sensor_id;sensor_type;location;lat;lon;timestamp;P1;durP1;ratioP1;P2;durP2;ratioP2
18887;SDS011;9576;47.792;9.628;2023-02-23T00:00:58;38.05;;;17.10;;
18887;SDS011;9576;47.792;9.628;2023-02-23T00:04:00;51.42;;;17.70;;
18887;SDS011;9576;47.792;9.628;2023-02-23T00:07:02;30.45;;;16.05;;
18887;SDS011;9576;47.792;9.628;2023-02-23T00:10:07;51.85;;;16.42;;
18887;SDS011;9576;47.792;9.628;2023-02-23T00:13:11;41.45;;;17.42;;
18887;SDS011;9576;47.792;9.628;2023-02-23T00:16:13;33.72;;;15.55;;
18887;SDS011;9576;47.792;9.628;2023-02-23T00:19:16;39.95;;;16.10;;
18887;SDS011;9576;47.792;9.628;2023-02-23T00:22:19;28.88;;;15.00;;
18887;SDS011;9576;47.792;9.628;2023-02-23T00:25:23;39.10;;;16.10;;
18887;SDS011;9576;47.792;9.628;2023-02-23T00:28:25;41.38;;;17.50;;
18887;SDS011;9576;47.792;9.628;2023-02-23T00:31:27;41.30;;;16.35;;
18887;SDS011;9576;47.792;9.628;2023-02-23T00:34:29;45.90;;;18.20;;
18887;SDS011;9576;47.792;9.628;2023-02-23T00:37:31;35.00;;;16.27;;
18887;SDS011;9576;47.792;9.628;2023-02-23T00:40:35;43.00;;;17.65;;
18887;SDS011;9576;47.792;9.628;2023-02-23T00:43:42;50.97;;;19.33;;
18887;SDS011;9576;47.792;9.628;2023-02-23T00:46:46;42.17;;;18.38;;
18887;SDS011;9576;47.792;9.628;2023-02-23T00:49:50;44.67;;;17.88;;
18887;SDS011;9576;47.792;9.628;2023-02-23T00:52:52;43.45;;;17.83;;
18887;SDS011;9576;47.792;9.628;2023-02-23T00:55:55;47.78;;;18.30;;
18887;SDS011;9576;47.792;9.628;2023-02-23T00:58:57;37.80;;;18.10;;
18887;SDS011;9576;47.792;9.628;2023-02-23T01:01:59;42.88;;;20.65;;
18887;SDS011;9576;47.792;9.628;2023-02-23T01:05:01;45.72;;;19.65;;
18887;SDS011;9576;47.792;9.628;2023-02-23T01:08:03;47.53;;;22.52;;
18887;SDS011;9576;47.792;9.628;2023-02-23T01:14:12;47.15;;;20.23;;
18887;SDS011;9576;47.792;9.628;2023-02-23T01:17:14;45.25;;;20.40;;
18887;SDS011;9576;47.792;9.628;2023-02-23T01:20:17;44.20;;;19.35;;
18887;SDS011;9576;47.792;9.628;2023-02-23T01:23:19;53.67;;;21.73;;
18887;SDS011;9576;47.792;9.628;2023-02-23T01:26:24;39.75;;;19.50;;
18887;SDS011;9576;47.792;9.628;2023-02-23T01:29:27;51.83;;;23.63;;
18887;SDS011;9576;47.792;9.628;2023-02-23T01:32:29;43.10;;;20.00;;
18887;SDS011;9576;47.792;9.628;2023-02-23T01:35:31;54.90;;;23.08;;
18887;SDS011;9576;47.792;9.628;2023-02-23T01:38:33;59.85;;;22.90;;
18887;SDS011;9576;47.792;9.628;2023-02-23T01:41:36;52.13;;;22.58;;
18887;SDS011;9576;47.792;9.628;2023-02-23T01:48:23;51.38;;;22.65;;
18887;SDS011;9576;47.792;9.628;2023-02-23T01:51:28;46.78;;;22.83;;
18887;SDS011;9576;47.792;9.628;2023-02-23T01:54:35;49.42;;;21.42;;
18887;SDS011;9576;47.792;9.628;2023-02-23T02:00:43;46.17;;;21.33;;
18887;SDS011;9576;47.792;9.628;2023-02-23T02:03:48;54.83;;;20.95;;
18887;SDS011;9576;47.792;9.628;2023-02-23T02:06:55;50.67;;;21.10;;
18887;SDS011;9576;47.792;9.628;2023-02-23T02:10:00;49.25;;;20.02;;
18887;SDS011;9576;47.792;9.628;2023-02-23T02:13:19;47.20;;;21.90;;
18887;SDS011;9576;47.792;9.628;2023-02-23T02:16:27;45.67;;;20.67;;
18887;SDS011;9576;47.792;9.628;2023-02-23T02:19:52;43.08;;;20.48;;
18887;SDS011;9576;47.792;9.628;2023-02-23T02:23:30;51.42;;;20.92;;
18887;SDS011;9576;47.792;9.628;2023-02-23T02:26:52;43.05;;;19.80;;
18887;SDS011;9576;47.792;9.628;2023-02-23T02:37:39;42.80;;;19.35;;
18887;SDS011;9576;47.792;9.628;2023-02-23T02:40:57;49.75;;;20.30;;
18887;SDS011;9576;47.792;9.628;2023-02-23T02:44:06;38.72;;;19.60;;
18887;SDS011;9576;47.792;9.628;2023-02-23T02:47:15;46.30;;;20.17;;
18887;SDS011;9576;47.792;9.628;2023-02-23T02:50:22;45.63;;;20.85;;
18887;SDS011;9576;47.792;9.628;2023-02-23T02:53:33;40.45;;;20.25;;
18887;SDS011;9576;47.792;9.628;2023-02-23T02:56:42;45.08;;;19.73;;
18887;SDS011;9576;47.792;9.628;2023-02-23T02:59:46;44.53;;;19.67;;
18887;SDS011;9576;47.792;9.628;2023-02-23T03:03:07;44.97;;;20.30;;
18887;SDS011;9576;47.792;9.628;2023-02-23T03:06:45;45.63;;;20.48;;
18887;SDS011;9576;47.792;9.628;2023-02-23T03:10:12;54.60;;;20.80;;
18887;SDS011;9576;47.792;9.628;2023-02-23T03:13:41;44.47;;;21.35;;
18887;SDS011;9576;47.792;9.628;2023-02-23T03:17:11;61.70;;;23.08;;
18887;SDS011;9576;47.792;9.628;2023-02-23T03:20:39;45.28;;;20.40;;
18887;SDS011;9576;47.792;9.628;2023-02-23T03:24:04;40.55;;;18.95;;
18887;SDS011;9576;47.792;9.628;2023-02-23T03:27:34;48.72;;;22.17;;
18887;SDS011;9576;47.792;9.628;2023-02-23T03:31:03;49.35;;;20.20;;
18887;SDS011;9576;47.792;9.628;2023-02-23T03:34:29;46.65;;;22.15;;
18887;SDS011;9576;47.792;9.628;2023-02-23T03:37:55;37.92;;;18.65;;
18887;SDS011;9576;47.792;9.628;2023-02-23T03:41:19;44.10;;;21.83;;
18887;SDS011;9576;47.792;9.628;2023-02-23T03:44:42;50.15;;;22.15;;
18887;SDS011;9576;47.792;9.628;2023-02-23T03:48:05;41.97;;;20.23;;
18887;SDS011;9576;47.792;9.628;2023-02-23T03:51:28;48.45;;;21.25;;
18887;SDS011;9576;47.792;9.628;2023-02-23T03:54:52;50.63;;;21.30;;
18887;SDS011;9576;47.792;9.628;2023-02-23T03:58:16;40.30;;;19.97;;
18887;SDS011;9576;47.792;9.628;2023-02-23T04:01:42;55.20;;;23.98;;
18887;SDS011;9576;47.792;9.628;2023-02-23T04:05:04;49.05;;;22.08;;
18887;SDS011;9576;47.792;9.628;2023-02-23T04:08:29;53.90;;;21.95;;
18887;SDS011;9576;47.792;9.628;2023-02-23T04:11:53;49.67;;;23.50;;
18887;SDS011;9576;47.792;9.628;2023-02-23T04:15:21;56.63;;;22.83;;
18887;SDS011;9576;47.792;9.628;2023-02-23T04:18:27;58.05;;;24.17;;
18887;SDS011;9576;47.792;9.628;2023-02-23T04:21:30;48.08;;;24.27;;
18887;SDS011;9576;47.792;9.628;2023-02-23T04:24:32;61.00;;;23.48;;
18887;SDS011;9576;47.792;9.628;2023-02-23T04:27:34;53.60;;;22.77;;
18887;SDS011;9576;47.792;9.628;2023-02-23T04:30:36;53.90;;;23.98;;
18887;SDS011;9576;47.792;9.628;2023-02-23T04:33:40;55.58;;;24.48;;
18887;SDS011;9576;47.792;9.628;2023-02-23T04:36:41;56.92;;;23.92;;
18887;SDS011;9576;47.792;9.628;2023-02-23T04:39:43;61.78;;;25.02;;
18887;SDS011;9576;47.792;9.628;2023-02-23T04:42:48;50.08;;;22.63;;
18887;SDS011;9576;47.792;9.628;2023-02-23T04:45:50;51.20;;;21.55;;
18887;SDS011;9576;47.792;9.628;2023-02-23T04:48:54;50.80;;;22.27;;
18887;SDS011;9576;47.792;9.628;2023-02-23T04:51:56;51.60;;;25.30;;
18887;SDS011;9576;47.792;9.628;2023-02-23T04:54:58;55.45;;;24.70;;
18887;SDS011;9576;47.792;9.628;2023-02-23T04:58:00;62.20;;;25.67;;
18887;SDS011;9576;47.792;9.628;2023-02-23T05:01:03;49.28;;;23.88;;
18887;SDS011;9576;47.792;9.628;2023-02-23T05:04:07;53.83;;;22.02;;
18887;SDS011;9576;47.792;9.628;2023-02-23T05:07:09;69.35;;;25.65;;
18887;SDS011;9576;47.792;9.628;2023-02-23T05:10:11;55.22;;;25.15;;
18887;SDS011;9576;47.792;9.628;2023-02-23T05:13:14;49.85;;;23.80;;
18887;SDS011;9576;47.792;9.628;2023-02-23T05:16:15;51.45;;;24.00;;
18887;SDS011;9576;47.792;9.628;2023-02-23T05:19:19;52.22;;;25.55;;
18887;SDS011;9576;47.792;9.628;2023-02-23T05:22:21;51.85;;;22.75;;
18887;SDS011;9576;47.792;9.628;2023-02-23T05:25:23;53.72;;;24.23;;
18887;SDS011;9576;47.792;9.628;2023-02-23T05:28:25;53.50;;;24.00;;
18887;SDS011;9576;47.792;9.628;2023-02-23T05:31:27;54.38;;;25.02;;
18887;SDS011;9576;47.792;9.628;2023-02-23T05:34:30;57.08;;;26.88;;
18887;SDS011;9576;47.792;9.628;2023-02-23T05:37:32;69.95;;;30.23;;
18887;SDS011;9576;47.792;9.628;2023-02-23T05:40:35;91.82;;;36.65;;
18887;SDS011;9576;47.792;9.628;2023-02-23T05:43:37;75.85;;;31.98;;
18887;SDS011;9576;47.792;9.628;2023-02-23T05:46:39;68.35;;;32.28;;
18887;SDS011;9576;47.792;9.628;2023-02-23T05:49:42;59.53;;;29.55;;
18887;SDS011;9576;47.792;9.628;2023-02-23T05:52:45;88.07;;;35.03;;
18887;SDS011;9576;47.792;9.628;2023-02-23T05:55:47;76.28;;;32.88;;
18887;SDS011;9576;47.792;9.628;2023-02-23T05:58:49;64.32;;;30.25;;
18887;SDS011;9576;47.792;9.628;2023-02-23T06:01:52;62.20;;;28.67;;
18887;SDS011;9576;47.792;9.628;2023-02-23T06:04:56;64.15;;;28.38;;
18887;SDS011;9576;47.792;9.628;2023-02-23T06:07:57;60.58;;;26.70;;
18887;SDS011;9576;47.792;9.628;2023-02-23T06:10:59;56.72;;;25.58;;
18887;SDS011;9576;47.792;9.628;2023-02-23T06:14:02;50.65;;;23.83;;
18887;SDS011;9576;47.792;9.628;2023-02-23T06:17:04;54.47;;;25.33;;
18887;SDS011;9576;47.792;9.628;2023-02-23T06:20:08;61.45;;;27.42;;
18887;SDS011;9576;47.792;9.628;2023-02-23T06:23:11;51.17;;;26.17;;
18887;SDS011;9576;47.792;9.628;2023-02-23T06:26:14;57.15;;;25.98;;
18887;SDS011;9576;47.792;9.628;2023-02-23T06:29:16;100.32;;;27.95;;
18887;SDS011;9576;47.792;9.628;2023-02-23T06:32:18;46.40;;;20.58;;
18887;SDS011;9576;47.792;9.628;2023-02-23T06:35:21;43.25;;;20.45;;
18887;SDS011;9576;47.792;9.628;2023-02-23T06:38:26;43.42;;;19.67;;
18887;SDS011;9576;47.792;9.628;2023-02-23T06:41:28;43.15;;;19.52;;
18887;SDS011;9576;47.792;9.628;2023-02-23T06:44:30;49.78;;;19.60;;
18887;SDS011;9576;47.792;9.628;2023-02-23T06:47:34;46.00;;;21.20;;
18887;SDS011;9576;47.792;9.628;2023-02-23T06:50:37;41.20;;;18.55;;
18887;SDS011;9576;47.792;9.628;2023-02-23T06:53:39;42.70;;;20.95;;
18887;SDS011;9576;47.792;9.628;2023-02-23T06:56:41;50.70;;;20.02;;
18887;SDS011;9576;47.792;9.628;2023-02-23T06:59:43;40.53;;;18.55;;
18887;SDS011;9576;47.792;9.628;2023-02-23T07:02:45;54.25;;;21.35;;
18887;SDS011;9576;47.792;9.628;2023-02-23T07:05:48;41.03;;;19.60;;
18887;SDS011;9576;47.792;9.628;2023-02-23T07:08:50;47.83;;;20.83;;
18887;SDS011;9576;47.792;9.628;2023-02-23T07:11:52;42.47;;;19.17;;
18887;SDS011;9576;47.792;9.628;2023-02-23T07:14:54;37.72;;;18.35;;
18887;SDS011;9576;47.792;9.628;2023-02-23T07:17:56;37.83;;;17.42;;
18887;SDS011;9576;47.792;9.628;2023-02-23T07:20:59;39.38;;;17.70;;
18887;SDS011;9576;47.792;9.628;2023-02-23T07:24:01;38.58;;;17.13;;
18887;SDS011;9576;47.792;9.628;2023-02-23T07:27:05;38.40;;;16.65;;
18887;SDS011;9576;47.792;9.628;2023-02-23T07:30:07;34.35;;;16.75;;
18887;SDS011;9576;47.792;9.628;2023-02-23T07:33:10;43.97;;;18.33;;
18887;SDS011;9576;47.792;9.628;2023-02-23T07:36:13;39.58;;;16.85;;
18887;SDS011;9576;47.792;9.628;2023-02-23T07:39:15;31.63;;;14.75;;
18887;SDS011;9576;47.792;9.628;2023-02-23T07:42:17;31.58;;;13.57;;
18887;SDS011;9576;47.792;9.628;2023-02-23T07:45:19;37.35;;;13.98;;
18887;SDS011;9576;47.792;9.628;2023-02-23T07:48:22;30.75;;;12.77;;
18887;SDS011;9576;47.792;9.628;2023-02-23T07:51:25;26.23;;;13.18;;
18887;SDS011;9576;47.792;9.628;2023-02-23T07:54:27;40.80;;;13.32;;
18887;SDS011;9576;47.792;9.628;2023-02-23T07:57:29;28.60;;;12.20;;
18887;SDS011;9576;47.792;9.628;2023-02-23T08:00:31;30.30;;;13.13;;
18887;SDS011;9576;47.792;9.628;2023-02-23T08:03:33;33.58;;;12.63;;
18887;SDS011;9576;47.792;9.628;2023-02-23T08:06:36;39.42;;;14.07;;
18887;SDS011;9576;47.792;9.628;2023-02-23T08:09:38;48.45;;;18.23;;
18887;SDS011;9576;47.792;9.628;2023-02-23T08:12:40;45.65;;;19.92;;
18887;SDS011;9576;47.792;9.628;2023-02-23T08:15:42;41.47;;;20.25;;
18887;SDS011;9576;47.792;9.628;2023-02-23T08:18:44;54.08;;;19.15;;
18887;SDS011;9576;47.792;9.628;2023-02-23T08:21:47;57.63;;;20.13;;
18887;SDS011;9576;47.792;9.628;2023-02-23T08:24:50;41.03;;;20.13;;
18887;SDS011;9576;47.792;9.628;2023-02-23T08:27:52;40.17;;;16.92;;
18887;SDS011;9576;47.792;9.628;2023-02-23T08:30:54;39.58;;;18.42;;
18887;SDS011;9576;47.792;9.628;2023-02-23T08:33:56;44.17;;;19.70;;
18887;SDS011;9576;47.792;9.628;2023-02-23T08:37:00;62.03;;;19.25;;
18887;SDS011;9576;47.792;9.628;2023-02-23T08:40:02;45.88;;;21.42;;
18887;SDS011;9576;47.792;9.628;2023-02-23T08:43:05;45.00;;;20.00;;
18887;SDS011;9576;47.792;9.628;2023-02-23T08:46:07;41.33;;;19.42;;
18887;SDS011;9576;47.792;9.628;2023-02-23T08:49:09;53.33;;;20.83;;
18887;SDS011;9576;47.792;9.628;2023-02-23T08:52:12;46.33;;;19.55;;
18887;SDS011;9576;47.792;9.628;2023-02-23T08:55:14;50.90;;;20.10;;
18887;SDS011;9576;47.792;9.628;2023-02-23T08:58:17;47.33;;;20.77;;
18887;SDS011;9576;47.792;9.628;2023-02-23T09:01:19;45.35;;;18.35;;
18887;SDS011;9576;47.792;9.628;2023-02-23T09:04:21;46.28;;;18.95;;
18887;SDS011;9576;47.792;9.628;2023-02-23T09:07:25;45.13;;;19.00;;
18887;SDS011;9576;47.792;9.628;2023-02-23T09:10:27;37.88;;;17.77;;
18887;SDS011;9576;47.792;9.628;2023-02-23T09:13:29;50.88;;;20.65;;
18887;SDS011;9576;47.792;9.628;2023-02-23T09:16:31;43.50;;;19.45;;
18887;SDS011;9576;47.792;9.628;2023-02-23T09:19:33;48.75;;;17.80;;
18887;SDS011;9576;47.792;9.628;2023-02-23T09:22:36;42.95;;;17.85;;
18887;SDS011;9576;47.792;9.628;2023-02-23T09:25:38;45.85;;;18.35;;
18887;SDS011;9576;47.792;9.628;2023-02-23T09:28:42;42.07;;;18.17;;
18887;SDS011;9576;47.792;9.628;2023-02-23T09:31:44;37.90;;;17.73;;
18887;SDS011;9576;47.792;9.628;2023-02-23T09:34:46;40.03;;;16.88;;
18887;SDS011;9576;47.792;9.628;2023-02-23T09:37:50;33.92;;;16.42;;
18887;SDS011;9576;47.792;9.628;2023-02-23T09:40:54;35.22;;;16.13;;
18887;SDS011;9576;47.792;9.628;2023-02-23T09:43:57;31.75;;;15.60;;
18887;SDS011;9576;47.792;9.628;2023-02-23T09:47:04;43.88;;;17.15;;
18887;SDS011;9576;47.792;9.628;2023-02-23T09:50:19;42.28;;;17.73;;
18887;SDS011;9576;47.792;9.628;2023-02-23T09:53:26;29.75;;;15.52;;
18887;SDS011;9576;47.792;9.628;2023-02-23T09:56:32;29.52;;;15.85;;
18887;SDS011;9576;47.792;9.628;2023-02-23T09:59:38;43.30;;;16.35;;
18887;SDS011;9576;47.792;9.628;2023-02-23T10:02:42;29.38;;;13.57;;
18887;SDS011;9576;47.792;9.628;2023-02-23T10:05:57;40.03;;;14.00;;
18887;SDS011;9576;47.792;9.628;2023-02-23T10:09:07;29.88;;;12.90;;
18887;SDS011;9576;47.792;9.628;2023-02-23T10:12:21;32.10;;;13.23;;
18887;SDS011;9576;47.792;9.628;2023-02-23T10:15:32;30.50;;;13.50;;
18887;SDS011;9576;47.792;9.628;2023-02-23T10:18:43;26.83;;;12.02;;
18887;SDS011;9576;47.792;9.628;2023-02-23T10:21:52;32.70;;;13.10;;
18887;SDS011;9576;47.792;9.628;2023-02-23T10:24:59;24.92;;;12.20;;
18887;SDS011;9576;47.792;9.628;2023-02-23T10:28:07;30.65;;;13.18;;
18887;SDS011;9576;47.792;9.628;2023-02-23T10:31:21;30.45;;;13.63;;
18887;SDS011;9576;47.792;9.628;2023-02-23T10:34:27;28.73;;;12.93;;
18887;SDS011;9576;47.792;9.628;2023-02-23T10:37:30;26.63;;;12.13;;
18887;SDS011;9576;47.792;9.628;2023-02-23T10:40:34;26.13;;;11.88;;
18887;SDS011;9576;47.792;9.628;2023-02-23T10:43:36;33.17;;;13.15;;
18887;SDS011;9576;47.792;9.628;2023-02-23T10:46:38;25.50;;;9.95;;
18887;SDS011;9576;47.792;9.628;2023-02-23T10:49:42;25.17;;;9.45;;
18887;SDS011;9576;47.792;9.628;2023-02-23T10:55:59;20.65;;;7.68;;
18887;SDS011;9576;47.792;9.628;2023-02-23T10:59:03;23.55;;;9.18;;
18887;SDS011;9576;47.792;9.628;2023-02-23T11:02:21;14.80;;;7.53;;
18887;SDS011;9576;47.792;9.628;2023-02-23T11:05:30;21.95;;;7.20;;
18887;SDS011;9576;47.792;9.628;2023-02-23T11:08:34;16.90;;;7.88;;
18887;SDS011;9576;47.792;9.628;2023-02-23T11:11:39;27.00;;;8.77;;
18887;SDS011;9576;47.792;9.628;2023-02-23T11:14:55;19.35;;;8.73;;
18887;SDS011;9576;47.792;9.628;2023-02-23T11:17:59;20.08;;;8.25;;
18887;SDS011;9576;47.792;9.628;2023-02-23T11:21:02;22.03;;;8.73;;
18887;SDS011;9576;47.792;9.628;2023-02-23T11:24:13;13.50;;;7.65;;
18887;SDS011;9576;47.792;9.628;2023-02-23T11:27:20;21.13;;;8.05;;
18887;SDS011;9576;47.792;9.628;2023-02-23T11:30:24;26.73;;;8.18;;
18887;SDS011;9576;47.792;9.628;2023-02-23T11:33:32;17.45;;;6.85;;
18887;SDS011;9576;47.792;9.628;2023-02-23T11:36:36;20.52;;;8.05;;
18887;SDS011;9576;47.792;9.628;2023-02-23T11:39:38;21.23;;;7.43;;
18887;SDS011;9576;47.792;9.628;2023-02-23T11:42:54;17.70;;;7.00;;
18887;SDS011;9576;47.792;9.628;2023-02-23T11:45:58;13.95;;;7.07;;
18887;SDS011;9576;47.792;9.628;2023-02-23T11:49:02;18.90;;;8.02;;
18887;SDS011;9576;47.792;9.628;2023-02-23T11:52:10;16.17;;;7.05;;
18887;SDS011;9576;47.792;9.628;2023-02-23T11:55:16;16.05;;;8.23;;
18887;SDS011;9576;47.792;9.628;2023-02-23T11:58:22;14.10;;;6.57;;
18887;SDS011;9576;47.792;9.628;2023-02-23T12:01:34;15.77;;;6.90;;
18887;SDS011;9576;47.792;9.628;2023-02-23T12:04:43;23.00;;;7.20;;
18887;SDS011;9576;47.792;9.628;2023-02-23T12:07:49;12.82;;;7.20;;
18887;SDS011;9576;47.792;9.628;2023-02-23T12:10:56;15.65;;;6.57;;
18887;SDS011;9576;47.792;9.628;2023-02-23T12:14:02;17.27;;;6.60;;
18887;SDS011;9576;47.792;9.628;2023-02-23T12:17:12;20.88;;;7.63;;
18887;SDS011;9576;47.792;9.628;2023-02-23T12:20:20;14.85;;;7.07;;
18887;SDS011;9576;47.792;9.628;2023-02-23T12:23:28;16.98;;;6.95;;
18887;SDS011;9576;47.792;9.628;2023-02-23T12:26:34;17.58;;;7.40;;
18887;SDS011;9576;47.792;9.628;2023-02-23T12:29:57;21.40;;;8.45;;
18887;SDS011;9576;47.792;9.628;2023-02-23T12:33:06;14.77;;;6.88;;
18887;SDS011;9576;47.792;9.628;2023-02-23T12:36:15;17.48;;;6.95;;
18887;SDS011;9576;47.792;9.628;2023-02-23T12:39:26;10.75;;;6.15;;
18887;SDS011;9576;47.792;9.628;2023-02-23T12:42:34;21.08;;;6.22;;
18887;SDS011;9576;47.792;9.628;2023-02-23T12:45:45;14.38;;;6.50;;
18887;SDS011;9576;47.792;9.628;2023-02-23T12:48:56;13.85;;;6.15;;
18887;SDS011;9576;47.792;9.628;2023-02-23T12:52:05;21.23;;;7.80;;
18887;SDS011;9576;47.792;9.628;2023-02-23T12:55:13;20.00;;;6.63;;
18887;SDS011;9576;47.792;9.628;2023-02-23T12:58:22;18.20;;;6.63;;
18887;SDS011;9576;47.792;9.628;2023-02-23T13:01:32;20.90;;;6.47;;
18887;SDS011;9576;47.792;9.628;2023-02-23T13:08:17;16.92;;;7.13;;
18887;SDS011;9576;47.792;9.628;2023-02-23T13:11:39;14.55;;;6.97;;
18887;SDS011;9576;47.792;9.628;2023-02-23T13:14:53;13.50;;;6.03;;
18887;SDS011;9576;47.792;9.628;2023-02-23T13:18:04;12.32;;;5.75;;
18887;SDS011;9576;47.792;9.628;2023-02-23T13:21:14;20.98;;;6.32;;
18887;SDS011;9576;47.792;9.628;2023-02-23T13:24:21;27.23;;;6.93;;
18887;SDS011;9576;47.792;9.628;2023-02-23T13:27:26;13.77;;;5.82;;
18887;SDS011;9576;47.792;9.628;2023-02-23T13:30:33;15.32;;;6.30;;
18887;SDS011;9576;47.792;9.628;2023-02-23T13:33:37;11.40;;;5.97;;
18887;SDS011;9576;47.792;9.628;2023-02-23T13:36:40;16.07;;;5.87;;
18887;SDS011;9576;47.792;9.628;2023-02-23T13:39:43;14.27;;;5.70;;
18887;SDS011;9576;47.792;9.628;2023-02-23T13:42:55;14.25;;;5.55;;
18887;SDS011;9576;47.792;9.628;2023-02-23T13:46:12;21.50;;;5.50;;
18887;SDS011;9576;47.792;9.628;2023-02-23T13:49:30;13.52;;;5.20;;
18887;SDS011;9576;47.792;9.628;2023-02-23T13:52:39;15.77;;;5.45;;
18887;SDS011;9576;47.792;9.628;2023-02-23T13:55:44;16.55;;;5.25;;
18887;SDS011;9576;47.792;9.628;2023-02-23T13:58:51;14.43;;;5.22;;
18887;SDS011;9576;47.792;9.628;2023-02-23T14:02:06;12.18;;;5.53;;
18887;SDS011;9576;47.792;9.628;2023-02-23T14:05:41;14.30;;;5.25;;
18887;SDS011;9576;47.792;9.628;2023-02-23T14:08:50;12.15;;;4.85;;
18887;SDS011;9576;47.792;9.628;2023-02-23T14:11:55;18.33;;;5.25;;
18887;SDS011;9576;47.792;9.628;2023-02-23T14:18:52;12.60;;;5.22;;
18887;SDS011;9576;47.792;9.628;2023-02-23T14:21:59;19.08;;;4.90;;
18887;SDS011;9576;47.792;9.628;2023-02-23T14:29:08;17.50;;;4.88;;
18887;SDS011;9576;47.792;9.628;2023-02-23T14:32:26;18.75;;;4.32;;
18887;SDS011;9576;47.792;9.628;2023-02-23T14:35:37;16.40;;;5.00;;
18887;SDS011;9576;47.792;9.628;2023-02-23T14:38:45;10.60;;;4.43;;
18887;SDS011;9576;47.792;9.628;2023-02-23T14:41:52;8.18;;;4.45;;
18887;SDS011;9576;47.792;9.628;2023-02-23T14:44:55;29.98;;;5.32;;
18887;SDS011;9576;47.792;9.628;2023-02-23T14:48:05;19.85;;;4.93;;
18887;SDS011;9576;47.792;9.628;2023-02-23T14:51:12;13.15;;;5.00;;
18887;SDS011;9576;47.792;9.628;2023-02-23T14:54:27;11.63;;;4.20;;
18887;SDS011;9576;47.792;9.628;2023-02-23T14:57:34;17.05;;;5.65;;
18887;SDS011;9576;47.792;9.628;2023-02-23T15:00:40;20.27;;;4.82;;
18887;SDS011;9576;47.792;9.628;2023-02-23T15:03:44;23.67;;;5.30;;
18887;SDS011;9576;47.792;9.628;2023-02-23T15:07:05;20.10;;;5.68;;
18887;SDS011;9576;47.792;9.628;2023-02-23T15:10:16;11.02;;;5.53;;
18887;SDS011;9576;47.792;9.628;2023-02-23T15:13:25;17.65;;;4.93;;
18887;SDS011;9576;47.792;9.628;2023-02-23T15:16:29;17.10;;;4.22;;
18887;SDS011;9576;47.792;9.628;2023-02-23T15:19:34;19.02;;;4.35;;
18887;SDS011;9576;47.792;9.628;2023-02-23T15:22:38;14.65;;;5.65;;
18887;SDS011;9576;47.792;9.628;2023-02-23T15:25:42;14.65;;;4.90;;
18887;SDS011;9576;47.792;9.628;2023-02-23T15:28:47;35.00;;;4.90;;
18887;SDS011;9576;47.792;9.628;2023-02-23T15:31:50;15.40;;;4.57;;
18887;SDS011;9576;47.792;9.628;2023-02-23T15:34:54;19.48;;;4.75;;
18887;SDS011;9576;47.792;9.628;2023-02-23T15:37:56;14.77;;;4.95;;
18887;SDS011;9576;47.792;9.628;2023-02-23T15:41:03;15.18;;;4.28;;
18887;SDS011;9576;47.792;9.628;2023-02-23T15:44:10;10.13;;;4.35;;
18887;SDS011;9576;47.792;9.628;2023-02-23T15:47:16;14.35;;;4.85;;
18887;SDS011;9576;47.792;9.628;2023-02-23T15:50:21;12.55;;;4.03;;
18887;SDS011;9576;47.792;9.628;2023-02-23T15:53:27;11.75;;;4.25;;
18887;SDS011;9576;47.792;9.628;2023-02-23T15:56:33;15.52;;;4.75;;
18887;SDS011;9576;47.792;9.628;2023-02-23T15:59:36;12.45;;;4.40;;
18887;SDS011;9576;47.792;9.628;2023-02-23T16:02:39;15.52;;;3.42;;
18887;SDS011;9576;47.792;9.628;2023-02-23T16:05:52;19.42;;;4.97;;
18887;SDS011;9576;47.792;9.628;2023-02-23T16:08:59;11.50;;;4.05;;
18887;SDS011;9576;47.792;9.628;2023-02-23T16:12:09;10.70;;;4.57;;
18887;SDS011;9576;47.792;9.628;2023-02-23T16:15:17;23.63;;;4.50;;
18887;SDS011;9576;47.792;9.628;2023-02-23T16:18:30;19.73;;;4.05;;
18887;SDS011;9576;47.792;9.628;2023-02-23T16:21:36;9.93;;;3.72;;
18887;SDS011;9576;47.792;9.628;2023-02-23T16:24:39;20.67;;;4.75;;
18887;SDS011;9576;47.792;9.628;2023-02-23T16:27:43;17.73;;;4.80;;
18887;SDS011;9576;47.792;9.628;2023-02-23T16:30:49;24.20;;;6.22;;
18887;SDS011;9576;47.792;9.628;2023-02-23T16:33:57;12.02;;;5.50;;
18887;SDS011;9576;47.792;9.628;2023-02-23T16:37:02;14.80;;;4.28;;
18887;SDS011;9576;47.792;9.628;2023-02-23T16:40:14;21.23;;;4.50;;
18887;SDS011;9576;47.792;9.628;2023-02-23T16:43:18;8.50;;;4.32;;
18887;SDS011;9576;47.792;9.628;2023-02-23T16:46:21;19.08;;;4.65;;
18887;SDS011;9576;47.792;9.628;2023-02-23T16:49:25;37.20;;;5.50;;
18887;SDS011;9576;47.792;9.628;2023-02-23T16:52:29;15.82;;;4.60;;
18887;SDS011;9576;47.792;9.628;2023-02-23T16:55:31;16.10;;;4.43;;
18887;SDS011;9576;47.792;9.628;2023-02-23T16:58:40;10.07;;;4.90;;
18887;SDS011;9576;47.792;9.628;2023-02-23T17:01:44;17.40;;;4.57;;
18887;SDS011;9576;47.792;9.628;2023-02-23T17:04:46;16.33;;;4.55;;
18887;SDS011;9576;47.792;9.628;2023-02-23T17:07:49;12.57;;;4.10;;
18887;SDS011;9576;47.792;9.628;2023-02-23T17:10:51;9.65;;;4.18;;
18887;SDS011;9576;47.792;9.628;2023-02-23T17:13:57;11.88;;;3.40;;
18887;SDS011;9576;47.792;9.628;2023-02-23T17:16:59;48.00;;;13.75;;
18887;SDS011;9576;47.792;9.628;2023-02-23T17:20:01;30.92;;;10.68;;
18887;SDS011;9576;47.792;9.628;2023-02-23T17:23:04;10.82;;;4.75;;
18887;SDS011;9576;47.792;9.628;2023-02-23T17:26:07;14.30;;;4.18;;
18887;SDS011;9576;47.792;9.628;2023-02-23T17:29:12;16.77;;;5.40;;
18887;SDS011;9576;47.792;9.628;2023-02-23T17:32:14;39.92;;;8.68;;
18887;SDS011;9576;47.792;9.628;2023-02-23T17:35:16;52.50;;;13.75;;
18887;SDS011;9576;47.792;9.628;2023-02-23T17:38:19;46.17;;;12.35;;
18887;SDS011;9576;47.792;9.628;2023-02-23T17:41:22;23.02;;;7.65;;
18887;SDS011;9576;47.792;9.628;2023-02-23T17:44:26;16.63;;;7.50;;
18887;SDS011;9576;47.792;9.628;2023-02-23T17:47:28;19.92;;;6.72;;
18887;SDS011;9576;47.792;9.628;2023-02-23T17:50:32;17.70;;;6.00;;
18887;SDS011;9576;47.792;9.628;2023-02-23T17:53:34;21.25;;;6.07;;
18887;SDS011;9576;47.792;9.628;2023-02-23T17:56:36;17.05;;;6.43;;
18887;SDS011;9576;47.792;9.628;2023-02-23T17:59:39;21.27;;;7.22;;
18887;SDS011;9576;47.792;9.628;2023-02-23T18:02:42;15.02;;;5.85;;
18887;SDS011;9576;47.792;9.628;2023-02-23T18:05:45;43.55;;;11.63;;
18887;SDS011;9576;47.792;9.628;2023-02-23T18:08:47;23.70;;;9.70;;
18887;SDS011;9576;47.792;9.628;2023-02-23T18:11:49;31.60;;;10.32;;
18887;SDS011;9576;47.792;9.628;2023-02-23T18:14:52;24.45;;;10.30;;
18887;SDS011;9576;47.792;9.628;2023-02-23T18:17:54;35.25;;;10.20;;
18887;SDS011;9576;47.792;9.628;2023-02-23T18:20:57;27.83;;;11.00;;
18887;SDS011;9576;47.792;9.628;2023-02-23T18:24:00;24.25;;;9.52;;
18887;SDS011;9576;47.792;9.628;2023-02-23T18:27:02;32.28;;;9.25;;
18887;SDS011;9576;47.792;9.628;2023-02-23T18:30:07;27.98;;;8.02;;
18887;SDS011;9576;47.792;9.628;2023-02-23T18:33:10;33.60;;;9.10;;
18887;SDS011;9576;47.792;9.628;2023-02-23T18:36:14;16.33;;;7.47;;
18887;SDS011;9576;47.792;9.628;2023-02-23T18:39:17;26.75;;;8.57;;
18887;SDS011;9576;47.792;9.628;2023-02-23T18:42:20;18.40;;;8.45;;
18887;SDS011;9576;47.792;9.628;2023-02-23T18:45:23;22.17;;;8.45;;
18887;SDS011;9576;47.792;9.628;2023-02-23T18:48:25;22.40;;;9.15;;
18887;SDS011;9576;47.792;9.628;2023-02-23T18:51:27;27.35;;;7.60;;
18887;SDS011;9576;47.792;9.628;2023-02-23T18:54:29;16.42;;;8.52;;
18887;SDS011;9576;47.792;9.628;2023-02-23T18:57:31;19.95;;;7.95;;
18887;SDS011;9576;47.792;9.628;2023-02-23T19:00:35;25.80;;;8.13;;
18887;SDS011;9576;47.792;9.628;2023-02-23T19:03:41;23.02;;;8.00;;
18887;SDS011;9576;47.792;9.628;2023-02-23T19:06:44;27.90;;;7.72;;